PWSweather.com
Personal Weather Stations
Station Observations
IRIVIRED2
île Maurice, Petit RaffrayMU

île MauricePetit RaffrayMU

Lat: -20.02533, Lon: 57.61883

Elevation: 183

Station Type: Davis Vantage Pro2 plus

http://www.meteomauritius.altervista.org

Latest ConditionsUpdated 4:00:00 AM GMT+04:04 Thursday, Apr 26, 2018
Currently Today's Max Today's Min Today's Average
Temperature 72.2°F22.3°C 74.0°F23.3°C 71.9°F22.2°C 73.0°F22.8°C
Dew Point 69.1°F20.6°C 70.2°F21.2°C 68.8°F20.4°C 69.6°F20.9°C
Winds Calm Calm 2.3 mph SE3.7 kmh SE - 0.2 mph 0.3 kmh
Wind Gusts -- 4.6 mph7.4 kmh - -
Humidity 90% 91% 87% 89%
Pressure 29.88 in1011.9 mb 29.91 in1012.9 mb 29.88 in1011.9 mb -
Hour Temp Dew Point Humidity Winds Wind Gusts Pressure Precip Precip Rate Daily Precip Total
04:00 AM 72.2°F22.3°C 69.1°F20.6°C 90% Calm Calm -- 29.88 in1011.9 mb - 0.00 in0.0 mm 0.00 in0.0 mm
03:50 AM 72.0°F22.2°C 69.2°F20.7°C 91% Calm Calm -- 29.88 in1011.9 mb - 0.00 in0.0 mm 0.00 in0.0 mm
03:40 AM 71.9°F22.2°C 68.8°F20.4°C 90% Calm Calm -- 29.88 in1011.9 mb - 0.00 in0.0 mm 0.00 in0.0 mm
03:30 AM 72.1°F22.3°C 69.0°F20.6°C 90% Calm Calm -- 29.88 in1011.9 mb - 0.00 in0.0 mm 0.00 in0.0 mm
03:20 AM 72.3°F22.4°C 69.2°F20.7°C 90% Calm Calm -- 29.89 in1012.2 mb - 0.00 in0.0 mm 0.00 in0.0 mm
03:10 AM 72.4°F22.4°C 69.3°F20.7°C 90% Calm Calm -- 29.89 in1012.2 mb - 0.00 in0.0 mm 0.00 in0.0 mm
03:00 AM 72.5°F22.5°C 69.4°F20.8°C 90% Calm Calm -- 29.89 in1012.2 mb - 0.00 in0.0 mm 0.00 in0.0 mm
02:50 AM 72.6°F22.6°C 69.2°F20.7°C 89% Calm Calm -- 29.89 in1012.2 mb - 0.00 in0.0 mm 0.00 in0.0 mm
02:40 AM 72.8°F22.7°C 69.3°F20.7°C 89% Calm Calm -- 29.89 in1012.2 mb - 0.00 in0.0 mm 0.00 in0.0 mm
02:30 AM 72.9°F22.7°C 69.5°F20.8°C 89% Calm Calm -- 29.89 in1012.2 mb - 0.00 in0.0 mm 0.00 in0.0 mm
02:20 AM 73.0°F22.8°C 69.6°F20.9°C 89% Calm Calm -- 29.89 in1012.2 mb - 0.00 in0.0 mm 0.00 in0.0 mm
02:10 AM 72.9°F22.7°C 69.5°F20.8°C 89% Calm Calm -- 29.90 in1012.5 mb - 0.00 in0.0 mm 0.00 in0.0 mm
02:00 AM 72.9°F22.7°C 69.5°F20.8°C 89% Calm Calm -- 29.90 in1012.5 mb - 0.00 in0.0 mm 0.00 in0.0 mm
01:50 AM 72.8°F22.7°C 69.4°F20.8°C 89% Calm Calm -- 29.90 in1012.5 mb - 0.00 in0.0 mm 0.00 in0.0 mm
01:40 AM 73.0°F22.8°C 69.6°F20.9°C 89% Calm Calm -- 29.90 in1012.5 mb - 0.00 in0.0 mm 0.00 in0.0 mm
01:30 AM 73.1°F22.8°C 69.7°F20.9°C 89% Calm Calm -- 29.90 in1012.5 mb - 0.00 in0.0 mm 0.00 in0.0 mm
01:20 AM 73.3°F22.9°C 69.9°F21.1°C 89% Calm Calm -- 29.90 in1012.5 mb - 0.00 in0.0 mm 0.00 in0.0 mm
01:10 AM 73.4°F23.0°C 70.0°F21.1°C 89% Calm Calm -- 29.90 in1012.5 mb - 0.00 in0.0 mm 0.00 in0.0 mm
01:00 AM 73.5°F23.1°C 69.7°F20.9°C 88% Calm Calm -- 29.91 in1012.9 mb - 0.00 in0.0 mm 0.00 in0.0 mm
12:50 AM 73.8°F23.2°C 70.0°F21.1°C 88% Calm Calm 2.3 mph3.7 kmh 29.91 in1012.9 mb - 0.00 in0.0 mm 0.00 in0.0 mm
12:40 AM 73.9°F23.3°C 70.1°F21.2°C 88% 2.3 mph SE3.7 kmh SE 3.5 mph5.6 kmh 29.91 in1012.9 mb - 0.00 in0.0 mm 0.00 in0.0 mm
12:30 AM 74.0°F23.3°C 70.2°F21.2°C 88% 1.2 mph SSE1.9 kmh SSE 3.5 mph5.6 kmh 29.91 in1012.9 mb - 0.00 in0.0 mm 0.00 in0.0 mm
12:20 AM 74.0°F23.3°C 69.9°F21.1°C 87% 1.2 mph SSE1.9 kmh SSE 3.5 mph5.6 kmh 29.91 in1012.9 mb - 0.00 in0.0 mm 0.00 in0.0 mm
12:10 AM 74.0°F23.3°C 70.2°F21.2°C 88% 1.2 mph S1.9 kmh S 4.6 mph7.4 kmh 29.91 in1012.9 mb - 0.00 in0.0 mm 0.00 in0.0 mm
12:00 AM 73.8°F23.2°C 70.0°F21.1°C 88% Calm Calm -- 29.91 in1012.9 mb - 0.00 in0.0 mm 0.00 in0.0 mm